sensor_id;sensor_type;location;lat;lon;timestamp;P1;durP1;ratioP1;P2;durP2;ratioP2
20776;SDS011;10548;47.504;8.248;2023-04-03T00:01:11;7.23;;;6.40;;
20776;SDS011;10548;47.504;8.248;2023-04-03T00:03:39;8.23;;;5.90;;
20776;SDS011;10548;47.504;8.248;2023-04-03T00:06:08;7.50;;;5.97;;
20776;SDS011;10548;47.504;8.248;2023-04-03T00:08:37;8.10;;;5.93;;
20776;SDS011;10548;47.504;8.248;2023-04-03T00:11:05;8.43;;;5.80;;
20776;SDS011;10548;47.504;8.248;2023-04-03T00:13:32;7.13;;;5.83;;
20776;SDS011;10548;47.504;8.248;2023-04-03T00:16:00;7.27;;;6.20;;
20776;SDS011;10548;47.504;8.248;2023-04-03T00:18:28;7.70;;;6.07;;
20776;SDS011;10548;47.504;8.248;2023-04-03T00:20:55;6.93;;;5.77;;
20776;SDS011;10548;47.504;8.248;2023-04-03T00:23:23;9.13;;;6.20;;
20776;SDS011;10548;47.504;8.248;2023-04-03T00:25:50;7.30;;;5.00;;
20776;SDS011;10548;47.504;8.248;2023-04-03T00:28:18;7.33;;;5.87;;
20776;SDS011;10548;47.504;8.248;2023-04-03T00:30:48;8.37;;;6.17;;
20776;SDS011;10548;47.504;8.248;2023-04-03T00:33:16;6.87;;;5.70;;
20776;SDS011;10548;47.504;8.248;2023-04-03T00:35:43;6.57;;;5.60;;
20776;SDS011;10548;47.504;8.248;2023-04-03T00:38:11;8.73;;;6.60;;
20776;SDS011;10548;47.504;8.248;2023-04-03T00:40:39;8.93;;;6.10;;
20776;SDS011;10548;47.504;8.248;2023-04-03T00:43:14;8.73;;;6.57;;
20776;SDS011;10548;47.504;8.248;2023-04-03T00:45:50;7.90;;;6.33;;
20776;SDS011;10548;47.504;8.248;2023-04-03T00:48:19;9.77;;;6.93;;
20776;SDS011;10548;47.504;8.248;2023-04-03T00:50:50;9.17;;;7.57;;
20776;SDS011;10548;47.504;8.248;2023-04-03T00:53:20;11.87;;;8.80;;
20776;SDS011;10548;47.504;8.248;2023-04-03T00:55:51;11.23;;;8.30;;
20776;SDS011;10548;47.504;8.248;2023-04-03T00:58:21;11.33;;;8.57;;
20776;SDS011;10548;47.504;8.248;2023-04-03T01:00:55;12.67;;;9.63;;
20776;SDS011;10548;47.504;8.248;2023-04-03T01:03:24;10.13;;;8.40;;
20776;SDS011;10548;47.504;8.248;2023-04-03T01:05:53;10.47;;;7.60;;
20776;SDS011;10548;47.504;8.248;2023-04-03T01:08:21;12.03;;;8.20;;
20776;SDS011;10548;47.504;8.248;2023-04-03T01:10:48;8.60;;;7.47;;
20776;SDS011;10548;47.504;8.248;2023-04-03T01:13:34;8.37;;;7.23;;
20776;SDS011;10548;47.504;8.248;2023-04-03T01:16:05;8.43;;;6.63;;
20776;SDS011;10548;47.504;8.248;2023-04-03T01:18:33;7.53;;;6.53;;
20776;SDS011;10548;47.504;8.248;2023-04-03T01:21:42;8.37;;;6.43;;
20776;SDS011;10548;47.504;8.248;2023-04-03T01:24:32;8.73;;;7.30;;
20776;SDS011;10548;47.504;8.248;2023-04-03T01:27:06;6.50;;;5.80;;
20776;SDS011;10548;47.504;8.248;2023-04-03T01:29:34;10.90;;;7.43;;
20776;SDS011;10548;47.504;8.248;2023-04-03T01:32:02;8.57;;;6.80;;
20776;SDS011;10548;47.504;8.248;2023-04-03T01:34:30;9.30;;;6.17;;
20776;SDS011;10548;47.504;8.248;2023-04-03T01:36:58;8.53;;;6.40;;
20776;SDS011;10548;47.504;8.248;2023-04-03T01:39:26;7.10;;;6.20;;
20776;SDS011;10548;47.504;8.248;2023-04-03T01:41:53;7.20;;;6.50;;
20776;SDS011;10548;47.504;8.248;2023-04-03T01:44:27;9.63;;;7.10;;
20776;SDS011;10548;47.504;8.248;2023-04-03T01:46:54;9.33;;;6.83;;
20776;SDS011;10548;47.504;8.248;2023-04-03T01:49:23;8.90;;;6.90;;
20776;SDS011;10548;47.504;8.248;2023-04-03T01:51:50;8.87;;;6.90;;
20776;SDS011;10548;47.504;8.248;2023-04-03T01:54:17;7.83;;;5.97;;
20776;SDS011;10548;47.504;8.248;2023-04-03T01:56:44;7.47;;;6.57;;
20776;SDS011;10548;47.504;8.248;2023-04-03T01:59:12;8.37;;;6.93;;
20776;SDS011;10548;47.504;8.248;2023-04-03T02:01:39;7.37;;;6.33;;
20776;SDS011;10548;47.504;8.248;2023-04-03T02:04:07;9.47;;;6.17;;
20776;SDS011;10548;47.504;8.248;2023-04-03T02:06:34;7.07;;;5.33;;
20776;SDS011;10548;47.504;8.248;2023-04-03T02:09:02;7.47;;;5.70;;
20776;SDS011;10548;47.504;8.248;2023-04-03T02:11:30;6.30;;;5.43;;
20776;SDS011;10548;47.504;8.248;2023-04-03T02:13:57;7.20;;;5.80;;
20776;SDS011;10548;47.504;8.248;2023-04-03T02:16:24;6.80;;;5.27;;
20776;SDS011;10548;47.504;8.248;2023-04-03T02:18:51;6.40;;;4.90;;
20776;SDS011;10548;47.504;8.248;2023-04-03T02:21:18;7.37;;;5.23;;
20776;SDS011;10548;47.504;8.248;2023-04-03T02:23:46;7.80;;;5.43;;
20776;SDS011;10548;47.504;8.248;2023-04-03T02:26:14;6.43;;;5.10;;
20776;SDS011;10548;47.504;8.248;2023-04-03T02:28:44;7.23;;;5.00;;
20776;SDS011;10548;47.504;8.248;2023-04-03T02:31:11;5.83;;;5.10;;
20776;SDS011;10548;47.504;8.248;2023-04-03T02:33:41;10.57;;;6.57;;
20776;SDS011;10548;47.504;8.248;2023-04-03T02:36:10;6.60;;;5.90;;
20776;SDS011;10548;47.504;8.248;2023-04-03T02:38:40;6.57;;;5.07;;
20776;SDS011;10548;47.504;8.248;2023-04-03T02:41:09;6.97;;;5.17;;
20776;SDS011;10548;47.504;8.248;2023-04-03T02:43:37;7.60;;;5.63;;
20776;SDS011;10548;47.504;8.248;2023-04-03T02:46:05;9.17;;;6.17;;
20776;SDS011;10548;47.504;8.248;2023-04-03T02:48:33;9.43;;;5.27;;
20776;SDS011;10548;47.504;8.248;2023-04-03T02:51:00;7.10;;;5.40;;
20776;SDS011;10548;47.504;8.248;2023-04-03T02:53:27;6.10;;;5.10;;
20776;SDS011;10548;47.504;8.248;2023-04-03T02:55:55;6.73;;;5.67;;
20776;SDS011;10548;47.504;8.248;2023-04-03T02:58:22;5.43;;;4.80;;
20776;SDS011;10548;47.504;8.248;2023-04-03T03:00:51;7.13;;;4.63;;
20776;SDS011;10548;47.504;8.248;2023-04-03T03:03:19;8.10;;;5.90;;
20776;SDS011;10548;47.504;8.248;2023-04-03T03:05:47;6.77;;;5.17;;
20776;SDS011;10548;47.504;8.248;2023-04-03T03:08:14;5.77;;;4.80;;
20776;SDS011;10548;47.504;8.248;2023-04-03T03:10:41;5.97;;;5.30;;
20776;SDS011;10548;47.504;8.248;2023-04-03T03:13:08;7.17;;;4.63;;
20776;SDS011;10548;47.504;8.248;2023-04-03T03:15:36;5.77;;;4.63;;
20776;SDS011;10548;47.504;8.248;2023-04-03T03:18:03;6.87;;;4.70;;
20776;SDS011;10548;47.504;8.248;2023-04-03T03:20:31;5.90;;;5.10;;
20776;SDS011;10548;47.504;8.248;2023-04-03T03:22:58;5.87;;;5.13;;
20776;SDS011;10548;47.504;8.248;2023-04-03T03:25:25;9.40;;;5.10;;
20776;SDS011;10548;47.504;8.248;2023-04-03T03:27:52;6.40;;;5.30;;
20776;SDS011;10548;47.504;8.248;2023-04-03T03:30:20;7.60;;;5.63;;
20776;SDS011;10548;47.504;8.248;2023-04-03T03:32:47;8.73;;;6.10;;
20776;SDS011;10548;47.504;8.248;2023-04-03T03:35:15;6.20;;;5.60;;
20776;SDS011;10548;47.504;8.248;2023-04-03T03:37:42;11.53;;;6.13;;
20776;SDS011;10548;47.504;8.248;2023-04-03T03:40:09;8.73;;;6.53;;
20776;SDS011;10548;47.504;8.248;2023-04-03T03:42:38;8.40;;;6.77;;
20776;SDS011;10548;47.504;8.248;2023-04-03T03:45:06;8.30;;;7.00;;
20776;SDS011;10548;47.504;8.248;2023-04-03T03:47:34;9.57;;;6.83;;
20776;SDS011;10548;47.504;8.248;2023-04-03T03:50:02;8.60;;;7.13;;
20776;SDS011;10548;47.504;8.248;2023-04-03T03:52:30;9.27;;;7.37;;
20776;SDS011;10548;47.504;8.248;2023-04-03T03:54:57;7.60;;;6.63;;
20776;SDS011;10548;47.504;8.248;2023-04-03T03:57:25;7.93;;;6.80;;
20776;SDS011;10548;47.504;8.248;2023-04-03T03:59:55;10.30;;;7.83;;
20776;SDS011;10548;47.504;8.248;2023-04-03T04:02:22;11.20;;;8.03;;
20776;SDS011;10548;47.504;8.248;2023-04-03T04:04:51;10.77;;;8.63;;
20776;SDS011;10548;47.504;8.248;2023-04-03T04:07:19;11.00;;;8.57;;
20776;SDS011;10548;47.504;8.248;2023-04-03T04:09:46;9.40;;;7.63;;
20776;SDS011;10548;47.504;8.248;2023-04-03T04:12:13;10.20;;;8.33;;
20776;SDS011;10548;47.504;8.248;2023-04-03T04:14:40;10.13;;;8.50;;
20776;SDS011;10548;47.504;8.248;2023-04-03T04:17:08;10.20;;;8.77;;
20776;SDS011;10548;47.504;8.248;2023-04-03T04:19:36;9.23;;;7.87;;
20776;SDS011;10548;47.504;8.248;2023-04-03T04:22:03;9.90;;;8.23;;
20776;SDS011;10548;47.504;8.248;2023-04-03T04:24:32;10.97;;;7.40;;
20776;SDS011;10548;47.504;8.248;2023-04-03T04:27:00;10.20;;;7.53;;
20776;SDS011;10548;47.504;8.248;2023-04-03T04:29:29;9.97;;;7.77;;
20776;SDS011;10548;47.504;8.248;2023-04-03T04:32:03;9.70;;;7.83;;
20776;SDS011;10548;47.504;8.248;2023-04-03T04:34:30;10.17;;;8.17;;
20776;SDS011;10548;47.504;8.248;2023-04-03T04:36:59;10.27;;;8.10;;
20776;SDS011;10548;47.504;8.248;2023-04-03T04:39:27;11.23;;;8.10;;
20776;SDS011;10548;47.504;8.248;2023-04-03T04:41:56;9.27;;;7.90;;
20776;SDS011;10548;47.504;8.248;2023-04-03T04:44:26;12.47;;;8.10;;
20776;SDS011;10548;47.504;8.248;2023-04-03T04:46:53;9.77;;;8.10;;
20776;SDS011;10548;47.504;8.248;2023-04-03T04:49:20;10.97;;;8.93;;
20776;SDS011;10548;47.504;8.248;2023-04-03T04:51:48;8.90;;;7.70;;
20776;SDS011;10548;47.504;8.248;2023-04-03T04:54:22;9.20;;;7.73;;
20776;SDS011;10548;47.504;8.248;2023-04-03T04:56:51;10.60;;;9.17;;
20776;SDS011;10548;47.504;8.248;2023-04-03T04:59:18;9.60;;;8.17;;
20776;SDS011;10548;47.504;8.248;2023-04-03T05:01:48;10.57;;;8.67;;
20776;SDS011;10548;47.504;8.248;2023-04-03T05:04:16;9.10;;;8.03;;
20776;SDS011;10548;47.504;8.248;2023-04-03T05:06:47;10.13;;;7.47;;
20776;SDS011;10548;47.504;8.248;2023-04-03T05:09:19;8.33;;;7.20;;
20776;SDS011;10548;47.504;8.248;2023-04-03T05:11:48;10.37;;;8.67;;
20776;SDS011;10548;47.504;8.248;2023-04-03T05:14:17;10.47;;;6.83;;
20776;SDS011;10548;47.504;8.248;2023-04-03T05:16:45;12.10;;;7.73;;
20776;SDS011;10548;47.504;8.248;2023-04-03T05:19:12;8.67;;;7.40;;
20776;SDS011;10548;47.504;8.248;2023-04-03T05:21:40;10.03;;;7.50;;
20776;SDS011;10548;47.504;8.248;2023-04-03T05:24:12;9.37;;;7.90;;
20776;SDS011;10548;47.504;8.248;2023-04-03T05:26:41;11.20;;;7.50;;
20776;SDS011;10548;47.504;8.248;2023-04-03T05:29:10;10.13;;;6.90;;
20776;SDS011;10548;47.504;8.248;2023-04-03T05:31:38;9.13;;;7.37;;
20776;SDS011;10548;47.504;8.248;2023-04-03T05:34:07;9.80;;;7.63;;
20776;SDS011;10548;47.504;8.248;2023-04-03T05:36:36;11.70;;;7.73;;
20776;SDS011;10548;47.504;8.248;2023-04-03T05:39:06;9.47;;;7.00;;
20776;SDS011;10548;47.504;8.248;2023-04-03T05:41:37;9.50;;;6.63;;
20776;SDS011;10548;47.504;8.248;2023-04-03T05:44:04;7.40;;;6.37;;
20776;SDS011;10548;47.504;8.248;2023-04-03T05:46:31;6.70;;;5.47;;
20776;SDS011;10548;47.504;8.248;2023-04-03T05:49:03;7.50;;;5.97;;
20776;SDS011;10548;47.504;8.248;2023-04-03T05:51:34;10.37;;;6.43;;
20776;SDS011;10548;47.504;8.248;2023-04-03T05:54:20;7.57;;;5.80;;
20776;SDS011;10548;47.504;8.248;2023-04-03T05:56:54;7.47;;;6.03;;
20776;SDS011;10548;47.504;8.248;2023-04-03T05:59:23;7.47;;;5.67;;
20776;SDS011;10548;47.504;8.248;2023-04-03T06:01:53;7.37;;;5.63;;
20776;SDS011;10548;47.504;8.248;2023-04-03T06:04:20;7.63;;;5.67;;
20776;SDS011;10548;47.504;8.248;2023-04-03T06:06:54;5.93;;;4.80;;
20776;SDS011;10548;47.504;8.248;2023-04-03T06:09:25;5.33;;;4.67;;
20776;SDS011;10548;47.504;8.248;2023-04-03T06:11:55;5.97;;;5.17;;
20776;SDS011;10548;47.504;8.248;2023-04-03T06:14:26;5.50;;;4.63;;
20776;SDS011;10548;47.504;8.248;2023-04-03T06:16:54;6.73;;;4.57;;
20776;SDS011;10548;47.504;8.248;2023-04-03T06:19:21;8.77;;;4.70;;
20776;SDS011;10548;47.504;8.248;2023-04-03T06:21:52;5.50;;;4.43;;
20776;SDS011;10548;47.504;8.248;2023-04-03T06:24:19;6.60;;;3.93;;
20776;SDS011;10548;47.504;8.248;2023-04-03T06:26:49;7.20;;;4.10;;
20776;SDS011;10548;47.504;8.248;2023-04-03T06:29:18;6.40;;;4.23;;
20776;SDS011;10548;47.504;8.248;2023-04-03T06:31:46;5.13;;;4.00;;
20776;SDS011;10548;47.504;8.248;2023-04-03T06:34:13;4.90;;;3.60;;
20776;SDS011;10548;47.504;8.248;2023-04-03T06:36:42;6.07;;;4.20;;
20776;SDS011;10548;47.504;8.248;2023-04-03T06:39:16;5.57;;;3.70;;
20776;SDS011;10548;47.504;8.248;2023-04-03T06:41:47;4.83;;;3.63;;
20776;SDS011;10548;47.504;8.248;2023-04-03T06:44:15;5.00;;;3.80;;
20776;SDS011;10548;47.504;8.248;2023-04-03T06:46:43;4.47;;;3.73;;
20776;SDS011;10548;47.504;8.248;2023-04-03T06:49:12;5.70;;;3.57;;
20776;SDS011;10548;47.504;8.248;2023-04-03T06:51:39;5.90;;;3.93;;
20776;SDS011;10548;47.504;8.248;2023-04-03T06:54:06;6.73;;;3.60;;
20776;SDS011;10548;47.504;8.248;2023-04-03T06:56:35;6.70;;;3.80;;
20776;SDS011;10548;47.504;8.248;2023-04-03T06:59:02;5.33;;;3.60;;
20776;SDS011;10548;47.504;8.248;2023-04-03T07:01:30;4.57;;;3.60;;
20776;SDS011;10548;47.504;8.248;2023-04-03T07:03:57;4.77;;;3.60;;
20776;SDS011;10548;47.504;8.248;2023-04-03T07:06:25;5.63;;;3.80;;
20776;SDS011;10548;47.504;8.248;2023-04-03T07:08:55;4.97;;;3.00;;
20776;SDS011;10548;47.504;8.248;2023-04-03T07:11:22;6.47;;;3.50;;
20776;SDS011;10548;47.504;8.248;2023-04-03T07:13:49;4.67;;;3.43;;
20776;SDS011;10548;47.504;8.248;2023-04-03T07:16:16;4.73;;;3.53;;
20776;SDS011;10548;47.504;8.248;2023-04-03T07:18:44;5.20;;;3.47;;
20776;SDS011;10548;47.504;8.248;2023-04-03T07:21:12;4.43;;;3.43;;
20776;SDS011;10548;47.504;8.248;2023-04-03T07:23:39;5.10;;;3.20;;
20776;SDS011;10548;47.504;8.248;2023-04-03T07:26:07;4.23;;;3.00;;
20776;SDS011;10548;47.504;8.248;2023-04-03T07:28:34;3.60;;;3.10;;
20776;SDS011;10548;47.504;8.248;2023-04-03T07:31:04;3.90;;;3.10;;
20776;SDS011;10548;47.504;8.248;2023-04-03T07:33:35;7.57;;;3.23;;
20776;SDS011;10548;47.504;8.248;2023-04-03T07:36:04;3.77;;;3.20;;
20776;SDS011;10548;47.504;8.248;2023-04-03T07:38:34;4.70;;;2.97;;
20776;SDS011;10548;47.504;8.248;2023-04-03T07:41:02;5.23;;;3.30;;
20776;SDS011;10548;47.504;8.248;2023-04-03T07:43:31;3.80;;;3.03;;
20776;SDS011;10548;47.504;8.248;2023-04-03T07:45:58;4.00;;;2.67;;
20776;SDS011;10548;47.504;8.248;2023-04-03T07:48:25;3.65;;;2.97;;
20776;SDS011;10548;47.504;8.248;2023-04-03T07:50:53;4.67;;;2.67;;
20776;SDS011;10548;47.504;8.248;2023-04-03T07:53:20;3.53;;;2.27;;
20776;SDS011;10548;47.504;8.248;2023-04-03T07:55:48;6.53;;;3.00;;
20776;SDS011;10548;47.504;8.248;2023-04-03T07:58:16;3.40;;;2.63;;
20776;SDS011;10548;47.504;8.248;2023-04-03T08:00:44;7.63;;;2.97;;
20776;SDS011;10548;47.504;8.248;2023-04-03T08:03:12;4.73;;;2.90;;
20776;SDS011;10548;47.504;8.248;2023-04-03T08:05:40;4.40;;;2.80;;
20776;SDS011;10548;47.504;8.248;2023-04-03T08:08:09;6.70;;;2.90;;
20776;SDS011;10548;47.504;8.248;2023-04-03T08:10:38;4.33;;;2.77;;
20776;SDS011;10548;47.504;8.248;2023-04-03T08:13:05;3.77;;;2.67;;
20776;SDS011;10548;47.504;8.248;2023-04-03T08:15:34;5.33;;;2.63;;
20776;SDS011;10548;47.504;8.248;2023-04-03T08:18:02;3.33;;;2.50;;
20776;SDS011;10548;47.504;8.248;2023-04-03T08:20:29;3.23;;;2.80;;
20776;SDS011;10548;47.504;8.248;2023-04-03T08:22:57;4.77;;;3.10;;
20776;SDS011;10548;47.504;8.248;2023-04-03T08:25:24;4.53;;;3.23;;
20776;SDS011;10548;47.504;8.248;2023-04-03T08:27:51;5.97;;;3.40;;
20776;SDS011;10548;47.504;8.248;2023-04-03T08:30:19;4.20;;;2.80;;
20776;SDS011;10548;47.504;8.248;2023-04-03T08:32:46;4.97;;;3.40;;
20776;SDS011;10548;47.504;8.248;2023-04-03T08:35:13;4.77;;;3.40;;
20776;SDS011;10548;47.504;8.248;2023-04-03T08:37:41;5.20;;;3.13;;
20776;SDS011;10548;47.504;8.248;2023-04-03T08:40:11;8.93;;;3.27;;
20776;SDS011;10548;47.504;8.248;2023-04-03T08:43:30;5.90;;;3.40;;
20776;SDS011;10548;47.504;8.248;2023-04-03T08:45:50;4.80;;;3.33;;
20776;SDS011;10548;47.504;8.248;2023-04-03T08:51:20;4.57;;;2.83;;
20776;SDS011;10548;47.504;8.248;2023-04-03T08:53:57;5.47;;;3.00;;
20776;SDS011;10548;47.504;8.248;2023-04-03T08:56:31;4.07;;;3.03;;
20776;SDS011;10548;47.504;8.248;2023-04-03T08:59:05;4.97;;;3.00;;
20776;SDS011;10548;47.504;8.248;2023-04-03T09:01:43;3.83;;;2.93;;
20776;SDS011;10548;47.504;8.248;2023-04-03T09:04:13;3.40;;;3.00;;
20776;SDS011;10548;47.504;8.248;2023-04-03T09:06:43;4.27;;;2.90;;
20776;SDS011;10548;47.504;8.248;2023-04-03T09:09:15;3.97;;;2.67;;
20776;SDS011;10548;47.504;8.248;2023-04-03T09:12:21;7.23;;;3.07;;
20776;SDS011;10548;47.504;8.248;2023-04-03T09:15:06;2.73;;;2.03;;
20776;SDS011;10548;47.504;8.248;2023-04-03T09:17:59;3.53;;;2.40;;
20776;SDS011;10548;47.504;8.248;2023-04-03T09:23:44;3.30;;;2.30;;
20776;SDS011;10548;47.504;8.248;2023-04-03T09:26:17;2.93;;;2.43;;
20776;SDS011;10548;47.504;8.248;2023-04-03T09:29:10;3.10;;;2.27;;
20776;SDS011;10548;47.504;8.248;2023-04-03T09:31:43;3.67;;;2.27;;
20776;SDS011;10548;47.504;8.248;2023-04-03T09:34:18;3.77;;;2.23;;
20776;SDS011;10548;47.504;8.248;2023-04-03T09:36:55;3.50;;;2.50;;
20776;SDS011;10548;47.504;8.248;2023-04-03T09:39:33;3.30;;;2.20;;
20776;SDS011;10548;47.504;8.248;2023-04-03T09:42:23;3.93;;;2.47;;
20776;SDS011;10548;47.504;8.248;2023-04-03T09:44:56;4.30;;;2.50;;
20776;SDS011;10548;47.504;8.248;2023-04-03T09:47:29;3.57;;;2.40;;
20776;SDS011;10548;47.504;8.248;2023-04-03T09:50:09;3.93;;;2.20;;
20776;SDS011;10548;47.504;8.248;2023-04-03T09:52:50;3.13;;;2.30;;
20776;SDS011;10548;47.504;8.248;2023-04-03T09:55:27;3.73;;;2.50;;
20776;SDS011;10548;47.504;8.248;2023-04-03T09:58:03;3.53;;;2.33;;
20776;SDS011;10548;47.504;8.248;2023-04-03T10:00:35;3.87;;;2.37;;
20776;SDS011;10548;47.504;8.248;2023-04-03T10:03:05;3.23;;;2.30;;
20776;SDS011;10548;47.504;8.248;2023-04-03T10:06:22;5.57;;;2.40;;
20776;SDS011;10548;47.504;8.248;2023-04-03T10:09:00;2.67;;;1.90;;
20776;SDS011;10548;47.504;8.248;2023-04-03T10:11:33;4.17;;;2.50;;
20776;SDS011;10548;47.504;8.248;2023-04-03T10:14:01;3.37;;;2.23;;
20776;SDS011;10548;47.504;8.248;2023-04-03T10:16:34;4.47;;;2.07;;
20776;SDS011;10548;47.504;8.248;2023-04-03T10:19:30;3.00;;;1.90;;
20776;SDS011;10548;47.504;8.248;2023-04-03T10:22:09;4.27;;;2.43;;
20776;SDS011;10548;47.504;8.248;2023-04-03T10:24:58;3.57;;;2.30;;
20776;SDS011;10548;47.504;8.248;2023-04-03T10:31:03;2.43;;;2.20;;
20776;SDS011;10548;47.504;8.248;2023-04-03T10:34:07;3.57;;;2.37;;
20776;SDS011;10548;47.504;8.248;2023-04-03T10:52:37;3.13;;;1.93;;
20776;SDS011;10548;47.504;8.248;2023-04-03T10:58:48;4.37;;;2.40;;
20776;SDS011;10548;47.504;8.248;2023-04-03T11:01:27;3.57;;;2.20;;
20776;SDS011;10548;47.504;8.248;2023-04-03T11:04:12;3.60;;;2.30;;
20776;SDS011;10548;47.504;8.248;2023-04-03T11:06:44;4.17;;;2.50;;
20776;SDS011;10548;47.504;8.248;2023-04-03T11:12:25;2.30;;;1.90;;
20776;SDS011;10548;47.504;8.248;2023-04-03T11:15:11;2.60;;;2.30;;
20776;SDS011;10548;47.504;8.248;2023-04-03T11:17:53;4.83;;;2.60;;
20776;SDS011;10548;47.504;8.248;2023-04-03T11:20:28;2.87;;;2.17;;
20776;SDS011;10548;47.504;8.248;2023-04-03T11:23:04;2.43;;;2.07;;
20776;SDS011;10548;47.504;8.248;2023-04-03T11:25:49;3.90;;;2.30;;
20776;SDS011;10548;47.504;8.248;2023-04-03T11:28:19;3.70;;;2.30;;
20776;SDS011;10548;47.504;8.248;2023-04-03T11:30:56;2.90;;;2.00;;
20776;SDS011;10548;47.504;8.248;2023-04-03T11:34:19;6.87;;;2.20;;
20776;SDS011;10548;47.504;8.248;2023-04-03T11:37:20;3.37;;;2.10;;
20776;SDS011;10548;47.504;8.248;2023-04-03T11:40:19;4.00;;;2.23;;
20776;SDS011;10548;47.504;8.248;2023-04-03T11:43:04;3.47;;;2.60;;
20776;SDS011;10548;47.504;8.248;2023-04-03T11:45:50;3.53;;;2.50;;
20776;SDS011;10548;47.504;8.248;2023-04-03T11:48:45;3.03;;;2.37;;
20776;SDS011;10548;47.504;8.248;2023-04-03T12:03:55;4.43;;;2.37;;
20776;SDS011;10548;47.504;8.248;2023-04-03T12:06:51;3.40;;;2.20;;
20776;SDS011;10548;47.504;8.248;2023-04-03T12:12:31;3.23;;;2.50;;
20776;SDS011;10548;47.504;8.248;2023-04-03T12:17:51;3.00;;;2.60;;
20776;SDS011;10548;47.504;8.248;2023-04-03T12:20:46;5.93;;;2.83;;
20776;SDS011;10548;47.504;8.248;2023-04-03T12:26:26;5.03;;;2.50;;
20776;SDS011;10548;47.504;8.248;2023-04-03T12:32:26;8.40;;;2.77;;
20776;SDS011;10548;47.504;8.248;2023-04-03T12:38:47;2.60;;;2.40;;
20776;SDS011;10548;47.504;8.248;2023-04-03T12:45:21;2.80;;;2.23;;
20776;SDS011;10548;47.504;8.248;2023-04-03T12:47:51;2.63;;;2.17;;
20776;SDS011;10548;47.504;8.248;2023-04-03T12:50:24;3.13;;;2.27;;
20776;SDS011;10548;47.504;8.248;2023-04-03T12:53:01;4.13;;;2.50;;
20776;SDS011;10548;47.504;8.248;2023-04-03T12:56:18;3.83;;;2.33;;
20776;SDS011;10548;47.504;8.248;2023-04-03T12:58:54;3.90;;;2.00;;
20776;SDS011;10548;47.504;8.248;2023-04-03T13:01:38;3.30;;;2.23;;
20776;SDS011;10548;47.504;8.248;2023-04-03T13:04:06;4.57;;;2.23;;
20776;SDS011;10548;47.504;8.248;2023-04-03T13:06:38;4.40;;;3.00;;
20776;SDS011;10548;47.504;8.248;2023-04-03T13:09:21;3.77;;;2.30;;
20776;SDS011;10548;47.504;8.248;2023-04-03T13:11:58;3.87;;;2.30;;
20776;SDS011;10548;47.504;8.248;2023-04-03T13:14:30;3.67;;;2.23;;
20776;SDS011;10548;47.504;8.248;2023-04-03T13:17:20;3.60;;;2.23;;
20776;SDS011;10548;47.504;8.248;2023-04-03T13:19:47;4.67;;;2.43;;
20776;SDS011;10548;47.504;8.248;2023-04-03T13:22:33;3.47;;;2.20;;
20776;SDS011;10548;47.504;8.248;2023-04-03T13:25:06;2.93;;;2.13;;
20776;SDS011;10548;47.504;8.248;2023-04-03T13:27:36;7.07;;;2.90;;
20776;SDS011;10548;47.504;8.248;2023-04-03T13:30:06;4.60;;;2.40;;
20776;SDS011;10548;47.504;8.248;2023-04-03T13:32:46;4.13;;;2.33;;
20776;SDS011;10548;47.504;8.248;2023-04-03T13:35:29;4.07;;;2.27;;
20776;SDS011;10548;47.504;8.248;2023-04-03T13:38:30;3.20;;;2.50;;
20776;SDS011;10548;47.504;8.248;2023-04-03T13:41:02;3.67;;;2.00;;
20776;SDS011;10548;47.504;8.248;2023-04-03T13:43:50;4.17;;;2.37;;
20776;SDS011;10548;47.504;8.248;2023-04-03T13:46:26;3.80;;;2.40;;
20776;SDS011;10548;47.504;8.248;2023-04-03T13:48:55;3.67;;;2.40;;
20776;SDS011;10548;47.504;8.248;2023-04-03T13:51:24;3.37;;;2.20;;
20776;SDS011;10548;47.504;8.248;2023-04-03T13:53:56;3.60;;;2.63;;
20776;SDS011;10548;47.504;8.248;2023-04-03T13:56:35;6.33;;;2.60;;
20776;SDS011;10548;47.504;8.248;2023-04-03T14:02:11;8.57;;;2.37;;
20776;SDS011;10548;47.504;8.248;2023-04-03T14:04:53;2.80;;;2.03;;
20776;SDS011;10548;47.504;8.248;2023-04-03T14:07:24;3.20;;;2.27;;
20776;SDS011;10548;47.504;8.248;2023-04-03T14:09:52;3.33;;;2.10;;
20776;SDS011;10548;47.504;8.248;2023-04-03T14:15:22;3.23;;;2.40;;
20776;SDS011;10548;47.504;8.248;2023-04-03T14:17:53;3.07;;;1.90;;
20776;SDS011;10548;47.504;8.248;2023-04-03T14:20:22;3.43;;;2.60;;
20776;SDS011;10548;47.504;8.248;2023-04-03T14:22:52;3.07;;;2.33;;
20776;SDS011;10548;47.504;8.248;2023-04-03T14:25:21;2.80;;;2.03;;
20776;SDS011;10548;47.504;8.248;2023-04-03T14:27:51;3.47;;;2.43;;
20776;SDS011;10548;47.504;8.248;2023-04-03T14:30:29;3.40;;;2.30;;
20776;SDS011;10548;47.504;8.248;2023-04-03T14:32:58;3.30;;;2.43;;
20776;SDS011;10548;47.504;8.248;2023-04-03T14:35:27;5.17;;;2.27;;
20776;SDS011;10548;47.504;8.248;2023-04-03T14:37:54;3.57;;;2.13;;
20776;SDS011;10548;47.504;8.248;2023-04-03T14:40:23;4.37;;;2.37;;
20776;SDS011;10548;47.504;8.248;2023-04-03T14:42:53;4.00;;;2.33;;
20776;SDS011;10548;47.504;8.248;2023-04-03T14:45:22;2.50;;;2.03;;
20776;SDS011;10548;47.504;8.248;2023-04-03T14:47:51;4.20;;;2.27;;
20776;SDS011;10548;47.504;8.248;2023-04-03T14:50:22;3.63;;;2.00;;
20776;SDS011;10548;47.504;8.248;2023-04-03T14:52:51;3.50;;;2.10;;
20776;SDS011;10548;47.504;8.248;2023-04-03T14:55:22;2.57;;;2.10;;
20776;SDS011;10548;47.504;8.248;2023-04-03T14:57:51;3.87;;;2.50;;
20776;SDS011;10548;47.504;8.248;2023-04-03T15:00:20;2.73;;;2.00;;
20776;SDS011;10548;47.504;8.248;2023-04-03T15:02:48;3.40;;;2.13;;
20776;SDS011;10548;47.504;8.248;2023-04-03T15:05:16;2.93;;;2.00;;
20776;SDS011;10548;47.504;8.248;2023-04-03T15:07:48;3.10;;;2.30;;
20776;SDS011;10548;47.504;8.248;2023-04-03T15:10:20;6.10;;;2.20;;
20776;SDS011;10548;47.504;8.248;2023-04-03T15:12:50;2.33;;;2.00;;
20776;SDS011;10548;47.504;8.248;2023-04-03T15:15:19;4.53;;;2.40;;
20776;SDS011;10548;47.504;8.248;2023-04-03T15:17:47;2.97;;;1.80;;
20776;SDS011;10548;47.504;8.248;2023-04-03T15:20:21;3.57;;;2.03;;
20776;SDS011;10548;47.504;8.248;2023-04-03T15:22:50;4.90;;;2.13;;
20776;SDS011;10548;47.504;8.248;2023-04-03T15:25:17;4.70;;;2.10;;
20776;SDS011;10548;47.504;8.248;2023-04-03T15:27:44;2.93;;;2.00;;
20776;SDS011;10548;47.504;8.248;2023-04-03T15:30:15;4.10;;;2.10;;
20776;SDS011;10548;47.504;8.248;2023-04-03T15:32:45;2.13;;;1.77;;
20776;SDS011;10548;47.504;8.248;2023-04-03T15:35:12;4.13;;;2.30;;
20776;SDS011;10548;47.504;8.248;2023-04-03T15:37:40;2.67;;;2.07;;
20776;SDS011;10548;47.504;8.248;2023-04-03T15:40:07;3.50;;;2.10;;
20776;SDS011;10548;47.504;8.248;2023-04-03T15:42:35;3.17;;;2.03;;
20776;SDS011;10548;47.504;8.248;2023-04-03T15:45:03;3.07;;;1.93;;
20776;SDS011;10548;47.504;8.248;2023-04-03T15:47:30;6.13;;;3.70;;
20776;SDS011;10548;47.504;8.248;2023-04-03T15:49:58;2.90;;;2.00;;
20776;SDS011;10548;47.504;8.248;2023-04-03T15:52:25;5.13;;;2.33;;
20776;SDS011;10548;47.504;8.248;2023-04-03T15:54:52;2.70;;;2.07;;
20776;SDS011;10548;47.504;8.248;2023-04-03T15:57:19;2.93;;;1.93;;
20776;SDS011;10548;47.504;8.248;2023-04-03T15:59:46;5.47;;;2.67;;
20776;SDS011;10548;47.504;8.248;2023-04-03T16:02:14;2.60;;;1.90;;
20776;SDS011;10548;47.504;8.248;2023-04-03T16:04:41;3.63;;;1.90;;
20776;SDS011;10548;47.504;8.248;2023-04-03T16:07:08;5.13;;;2.93;;
20776;SDS011;10548;47.504;8.248;2023-04-03T16:09:35;5.77;;;3.20;;
20776;SDS011;10548;47.504;8.248;2023-04-03T16:12:03;5.07;;;2.50;;
20776;SDS011;10548;47.504;8.248;2023-04-03T16:14:30;3.57;;;1.90;;
20776;SDS011;10548;47.504;8.248;2023-04-03T16:16:57;3.63;;;2.10;;
20776;SDS011;10548;47.504;8.248;2023-04-03T16:19:26;3.33;;;1.87;;
20776;SDS011;10548;47.504;8.248;2023-04-03T16:21:54;8.83;;;2.33;;
20776;SDS011;10548;47.504;8.248;2023-04-03T16:24:21;2.50;;;1.80;;